createdAt,value
2022-07-25T00:00:33.895Z,99.90
2022-07-25T00:03:02.700Z,99.90
2022-07-25T00:05:37.366Z,99.90
2022-07-25T00:08:07.067Z,99.90
2022-07-25T00:10:35.492Z,99.90
2022-07-25T00:13:05.266Z,99.90
2022-07-25T00:15:33.734Z,99.90
2022-07-25T00:18:02.165Z,99.90
2022-07-25T00:20:30.556Z,99.90
2022-07-25T00:22:58.998Z,99.90
2022-07-25T00:25:27.533Z,99.90
2022-07-25T00:27:55.908Z,99.90
2022-07-25T00:30:25.647Z,99.90
2022-07-25T00:32:54.695Z,99.90
2022-07-25T00:35:23.043Z,99.90
2022-07-25T00:37:51.555Z,99.90
2022-07-25T00:40:20.087Z,99.90
2022-07-25T00:42:48.596Z,99.90
2022-07-25T00:45:18.362Z,99.90
2022-07-25T00:47:48.157Z,99.90
2022-07-25T00:50:16.509Z,99.90
2022-07-25T00:52:44.897Z,99.90
2022-07-25T00:55:14.153Z,99.90
2022-07-25T00:57:42.576Z,99.90
2022-07-25T01:00:14.343Z,99.90
2022-07-25T01:02:43.173Z,99.90
2022-07-25T01:05:13.345Z,99.90
2022-07-25T01:07:42.050Z,99.90
2022-07-25T01:10:11.294Z,99.90
2022-07-25T01:12:50.706Z,99.90
2022-07-25T01:15:20.097Z,99.90
2022-07-25T01:17:48.724Z,99.90
2022-07-25T01:20:19.600Z,99.90
2022-07-25T01:22:48.464Z,99.90
2022-07-25T01:25:17.537Z,99.90
2022-07-25T01:27:48.832Z,99.90
2022-07-25T01:30:22.203Z,99.90
2022-07-25T01:32:50.556Z,99.90
2022-07-25T01:35:20.296Z,99.90
2022-07-25T01:37:48.821Z,99.90
2022-07-25T01:40:17.342Z,99.90
2022-07-25T01:42:46.208Z,99.90
2022-07-25T01:45:14.900Z,99.90
2022-07-25T01:47:43.412Z,99.90
2022-07-25T01:50:12.067Z,99.90
2022-07-25T01:52:41.835Z,99.90
2022-07-25T01:55:11.160Z,99.90
2022-07-25T01:57:41.042Z,99.90
2022-07-25T02:00:18.198Z,99.90
2022-07-25T02:02:46.608Z,99.90
2022-07-25T02:05:16.159Z,99.90
2022-07-25T02:07:45.900Z,99.90
2022-07-25T02:10:14.225Z,99.90
2022-07-25T02:12:42.640Z,99.90
2022-07-25T02:15:11.740Z,99.90
2022-07-25T02:17:40.123Z,99.90
2022-07-25T02:20:10.207Z,99.90
2022-07-25T02:22:38.562Z,99.90
2022-07-25T02:25:10.431Z,99.90
2022-07-25T02:27:38.955Z,99.90
2022-07-25T02:30:08.494Z,99.90
2022-07-25T02:32:36.833Z,99.90
2022-07-25T02:35:12.906Z,99.90
2022-07-25T02:37:42.225Z,99.90
2022-07-25T02:40:13.082Z,99.90
2022-07-25T02:42:41.667Z,99.90
2022-07-25T02:45:10.843Z,99.90
2022-07-25T02:48:11.644Z,99.90
2022-07-25T02:50:40.266Z,99.90
2022-07-25T02:53:08.674Z,99.90
2022-07-25T02:55:38.442Z,99.90
2022-07-25T02:58:06.789Z,99.90
2022-07-25T03:00:35.190Z,99.90
2022-07-25T03:03:03.503Z,99.90
2022-07-25T03:05:32.531Z,99.90
2022-07-25T03:08:00.671Z,99.90
2022-07-25T03:10:29.073Z,99.90
2022-07-25T03:12:58.616Z,99.90
2022-07-25T03:15:26.803Z,99.90
2022-07-25T03:17:54.982Z,99.90
2022-07-25T03:20:23.160Z,99.90
2022-07-25T03:22:51.286Z,99.90
2022-07-25T03:25:21.782Z,99.90
2022-07-25T03:27:50.757Z,99.90
2022-07-25T03:30:20.668Z,99.90
2022-07-25T03:32:48.866Z,99.90
2022-07-25T03:35:17.151Z,99.90
2022-07-25T03:37:45.643Z,99.90
2022-07-25T03:40:14.543Z,99.90
2022-07-25T03:42:44.795Z,99.90
2022-07-25T03:45:12.958Z,99.90
2022-07-25T03:47:42.531Z,99.90
2022-07-25T03:50:11.477Z,99.90
2022-07-25T03:52:39.723Z,99.90
2022-07-25T03:55:09.268Z,99.90
2022-07-25T03:57:37.704Z,99.90
2022-07-25T04:00:07.881Z,99.90
2022-07-25T04:02:37.532Z,99.90
2022-07-25T04:05:08.354Z,99.90
2022-07-25T04:07:36.721Z,99.90
2022-07-25T04:10:06.899Z,99.90
2022-07-25T04:12:34.977Z,99.90
2022-07-25T04:15:03.058Z,99.90
2022-07-25T04:17:31.407Z,99.90
2022-07-25T04:19:59.871Z,99.90
2022-07-25T04:22:29.370Z,99.90
2022-07-25T04:24:57.625Z,99.90
2022-07-25T04:27:25.728Z,99.90
2022-07-25T04:29:53.774Z,99.90
2022-07-25T04:32:23.633Z,99.90
2022-07-25T04:34:52.548Z,99.90
2022-07-25T04:37:20.625Z,99.90
2022-07-25T04:39:50.061Z,99.90
2022-07-25T04:42:18.126Z,99.90
2022-07-25T04:44:46.222Z,99.90
2022-07-25T04:47:14.286Z,99.90
2022-07-25T04:49:42.403Z,99.90
2022-07-25T04:52:10.562Z,99.90
2022-07-25T04:54:38.660Z,99.90
2022-07-25T04:57:08.079Z,99.90
2022-07-25T04:59:36.211Z,99.90
2022-07-25T05:02:04.425Z,99.90
2022-07-25T05:04:32.626Z,99.90
2022-07-25T05:07:03.261Z,99.90
2022-07-25T05:09:31.400Z,99.90
2022-07-25T05:11:59.494Z,99.90
2022-07-25T05:14:29.075Z,99.90
2022-07-25T05:16:57.185Z,99.90
2022-07-25T05:19:25.374Z,99.90
2022-07-25T05:21:53.773Z,99.90
2022-07-25T05:24:22.986Z,99.90
2022-07-25T05:26:51.291Z,99.90
2022-07-25T05:29:19.527Z,99.90
2022-07-25T05:31:49.022Z,99.90
2022-07-25T05:34:17.151Z,99.90
2022-07-25T05:36:47.286Z,99.90
2022-07-25T05:39:15.652Z,99.90
2022-07-25T05:41:44.334Z,99.90
2022-07-25T05:44:14.697Z,99.90
2022-07-25T05:46:43.027Z,99.90
2022-07-25T05:49:12.551Z,99.90
2022-07-25T05:51:40.661Z,99.90
2022-07-25T05:54:09.636Z,99.90
2022-07-25T05:56:37.964Z,99.90
2022-07-25T05:59:06.549Z,99.90
2022-07-25T06:01:34.735Z,99.90
2022-07-25T06:04:03.901Z,99.90
2022-07-25T06:06:34.221Z,99.90
2022-07-25T06:09:02.730Z,99.90
2022-07-25T06:11:36.343Z,99.90
2022-07-25T06:14:19.318Z,99.90
2022-07-25T06:16:48.335Z,99.90
2022-07-25T06:19:16.498Z,99.90
2022-07-25T06:21:45.979Z,99.90
2022-07-25T06:24:14.040Z,99.90
2022-07-25T06:26:42.758Z,99.90
2022-07-25T06:29:10.897Z,99.90
2022-07-25T06:31:39.098Z,99.90
2022-07-25T06:34:07.713Z,99.90
2022-07-25T06:36:35.990Z,99.90
2022-07-25T06:39:05.476Z,99.90
2022-07-25T06:41:33.598Z,99.90
2022-07-25T06:44:01.702Z,99.90
2022-07-25T06:46:31.479Z,99.90
2022-07-25T06:48:59.955Z,99.90
2022-07-25T06:51:28.322Z,99.90
2022-07-25T06:53:56.712Z,99.90
2022-07-25T06:56:28.009Z,99.90
2022-07-25T06:58:56.093Z,99.90
2022-07-25T07:01:24.239Z,99.90
2022-07-25T07:03:52.507Z,99.90
2022-07-25T07:06:20.887Z,99.90
2022-07-25T07:08:49.051Z,99.90
2022-07-25T07:11:17.227Z,99.90
2022-07-25T07:13:46.766Z,99.90
2022-07-25T07:16:15.028Z,99.90
2022-07-25T07:18:48.701Z,99.90
2022-07-25T07:21:21.350Z,99.90
2022-07-25T07:23:53.374Z,99.90
2022-07-25T07:26:22.517Z,99.90
2022-07-25T07:28:54.416Z,99.90
2022-07-25T07:31:22.656Z,99.90
2022-07-25T07:33:50.793Z,99.90
2022-07-25T07:36:18.874Z,99.90
2022-07-25T07:38:48.320Z,99.90
2022-07-25T07:41:16.705Z,99.90
2022-07-25T07:43:44.755Z,99.90
2022-07-25T07:46:14.262Z,99.90
2022-07-25T07:48:42.393Z,99.90
2022-07-25T07:51:10.486Z,99.90
2022-07-25T07:53:55.940Z,99.90
2022-07-25T07:56:24.252Z,99.90
2022-07-25T07:58:52.379Z,99.90
2022-07-25T08:01:21.918Z,99.90
2022-07-25T08:03:50.041Z,99.90
2022-07-25T08:06:18.397Z,99.90
2022-07-25T08:08:46.514Z,99.90
2022-07-25T08:11:16.781Z,99.90
2022-07-25T08:13:45.835Z,99.90
2022-07-25T08:16:14.352Z,99.90
2022-07-25T08:18:43.888Z,99.90
2022-07-25T08:21:12.306Z,99.90
2022-07-25T08:23:41.101Z,99.90
2022-07-25T08:26:09.509Z,99.90
2022-07-25T08:28:37.657Z,99.90
2022-07-25T08:31:05.900Z,99.90
2022-07-25T08:33:34.364Z,99.90
2022-07-25T08:36:04.042Z,99.90
2022-07-25T08:38:32.184Z,99.90
2022-07-25T08:41:02.830Z,99.90
2022-07-25T08:43:33.002Z,99.90
2022-07-25T08:46:02.994Z,99.90
2022-07-25T08:48:31.256Z,99.90
2022-07-25T08:51:00.491Z,99.90
2022-07-25T08:53:33.160Z,99.90
2022-07-25T08:56:05.318Z,99.90
2022-07-25T08:58:38.082Z,99.90
2022-07-25T09:01:07.092Z,99.90
2022-07-25T09:03:36.310Z,99.90
2022-07-25T09:06:15.836Z,99.90
2022-07-25T09:08:54.472Z,99.90
2022-07-25T09:11:31.162Z,99.90
2022-07-25T09:14:00.818Z,99.90
2022-07-25T09:16:32.610Z,99.90
2022-07-25T09:19:10.631Z,99.90
2022-07-25T09:21:39.823Z,99.90
2022-07-25T09:24:18.469Z,99.90
2022-07-25T09:26:49.054Z,99.90
2022-07-25T09:29:22.456Z,99.90
2022-07-25T09:31:51.179Z,99.90
2022-07-25T09:34:34.978Z,99.90
2022-07-25T09:37:04.321Z,99.90
2022-07-25T09:39:46.688Z,99.90
2022-07-25T09:42:21.959Z,99.90
2022-07-25T09:45:12.411Z,99.90
2022-07-25T09:47:52.114Z,99.90
2022-07-25T09:50:20.907Z,99.90
2022-07-25T09:52:49.002Z,99.90
2022-07-25T09:55:19.274Z,99.90
2022-07-25T09:57:48.999Z,99.90
2022-07-25T10:00:23.244Z,99.90
2022-07-25T10:02:59.424Z,99.90
2022-07-25T10:05:42.974Z,99.90
2022-07-25T10:08:12.657Z,99.90
2022-07-25T10:10:43.213Z,99.90
2022-07-25T10:13:15.182Z,99.90
2022-07-25T10:15:48.758Z,99.90
2022-07-25T10:18:19.914Z,99.90
2022-07-25T10:20:49.685Z,99.90
2022-07-25T10:23:25.698Z,99.90
2022-07-25T10:26:09.311Z,99.90
2022-07-25T10:28:43.288Z,99.90
2022-07-25T10:31:22.966Z,99.90
2022-07-25T10:33:54.294Z,99.90
2022-07-25T10:36:23.727Z,98.90
2022-07-25T10:38:58.468Z,97.90
2022-07-25T10:41:29.851Z,97.20
2022-07-25T10:44:02.876Z,96.30
2022-07-25T10:46:32.561Z,95.80
2022-07-25T10:49:06.030Z,96.80
2022-07-25T10:51:41.323Z,96.60
2022-07-25T10:54:17.181Z,96.40
2022-07-25T10:56:58.119Z,94.00
2022-07-25T10:59:32.189Z,94.30
2022-07-25T11:02:01.045Z,94.10
2022-07-25T11:04:29.334Z,93.30
2022-07-25T11:06:57.654Z,92.20
2022-07-25T11:09:28.275Z,92.50
2022-07-25T11:11:59.463Z,90.90
2022-07-25T11:14:32.824Z,90.60
2022-07-25T11:17:12.998Z,91.20
2022-07-25T11:19:41.671Z,90.30
2022-07-25T11:22:09.985Z,90.20
2022-07-25T11:24:40.398Z,90.50
2022-07-25T11:27:12.337Z,91.00
2022-07-25T11:29:41.967Z,91.10
2022-07-25T11:32:12.006Z,90.80
2022-07-25T11:34:43.508Z,90.30
2022-07-25T11:37:13.619Z,89.00
2022-07-25T11:39:44.123Z,89.50
2022-07-25T11:42:16.656Z,89.00
2022-07-25T11:44:48.065Z,87.60
2022-07-25T11:47:28.224Z,88.90
2022-07-25T11:49:57.747Z,90.00
2022-07-25T11:52:27.818Z,88.50
2022-07-25T11:54:57.222Z,88.30
2022-07-25T11:57:28.415Z,90.20
2022-07-25T11:59:57.727Z,91.10
2022-07-25T12:02:27.628Z,89.10
2022-07-25T12:04:57.975Z,91.10
2022-07-25T12:07:37.581Z,91.40
2022-07-25T12:10:06.767Z,91.50
2022-07-25T12:12:45.163Z,91.30
2022-07-25T12:15:14.723Z,90.80
2022-07-25T12:17:43.886Z,90.40
2022-07-25T12:20:17.121Z,90.40
2022-07-25T12:22:45.343Z,90.40
2022-07-25T12:25:14.038Z,92.10
2022-07-25T12:27:44.167Z,92.40
2022-07-25T12:30:13.743Z,92.40
2022-07-25T12:32:42.671Z,92.70
2022-07-25T12:35:12.421Z,92.90
2022-07-25T12:37:41.589Z,93.20
2022-07-25T12:40:10.962Z,93.40
2022-07-25T12:42:39.269Z,93.80
2022-07-25T12:45:09.953Z,93.80
2022-07-25T12:47:38.154Z,94.30
2022-07-25T12:50:07.402Z,94.30
2022-07-25T12:52:35.613Z,94.60
2022-07-25T12:55:03.828Z,94.80
2022-07-25T12:57:32.167Z,95.00
2022-07-25T13:00:00.296Z,95.00
2022-07-25T13:02:29.895Z,95.10
2022-07-25T13:04:58.126Z,95.20
2022-07-25T13:07:26.463Z,95.40
2022-07-25T13:09:54.670Z,95.80
2022-07-25T13:12:24.151Z,95.80
2022-07-25T13:14:52.329Z,95.40
2022-07-25T13:17:23.622Z,95.40
2022-07-25T13:19:57.813Z,95.10
2022-07-25T13:22:26.289Z,95.20
2022-07-25T13:24:55.275Z,95.30
2022-07-25T13:27:24.063Z,95.20
2022-07-25T13:29:54.861Z,94.40
2022-07-25T13:32:26.469Z,94.70
2022-07-25T13:34:56.260Z,95.40
2022-07-25T13:37:24.492Z,95.70
2022-07-25T13:39:52.690Z,96.00
2022-07-25T13:42:20.813Z,97.30
2022-07-25T13:44:49.135Z,98.80
2022-07-25T13:47:17.363Z,99.90
2022-07-25T13:49:45.494Z,99.90
2022-07-25T13:52:15.102Z,99.90
2022-07-25T13:54:43.361Z,99.90
2022-07-25T13:57:11.619Z,99.90
2022-07-25T13:59:39.933Z,99.90
2022-07-25T14:02:08.162Z,99.90
2022-07-25T14:04:36.294Z,99.90
2022-07-25T14:07:04.582Z,99.90
2022-07-25T14:09:34.078Z,99.90
2022-07-25T14:12:02.352Z,99.90
2022-07-25T14:14:30.529Z,99.90
2022-07-25T14:16:59.292Z,99.90
2022-07-25T14:19:27.491Z,99.90
2022-07-25T14:21:55.647Z,99.90
2022-07-25T14:24:23.904Z,99.90
2022-07-25T14:26:54.065Z,99.90
2022-07-25T14:29:25.944Z,99.90
2022-07-25T14:31:57.003Z,99.90
2022-07-25T14:34:25.320Z,99.90
2022-07-25T14:36:53.503Z,99.90
2022-07-25T14:39:21.730Z,99.90
2022-07-25T14:41:50.176Z,99.90
2022-07-25T14:44:20.182Z,99.90
2022-07-25T14:46:50.087Z,99.90
2022-07-25T14:49:20.182Z,99.90
2022-07-25T14:51:49.518Z,99.90
2022-07-25T14:54:18.500Z,99.90
2022-07-25T14:56:46.824Z,99.90
2022-07-25T14:59:15.005Z,99.90
2022-07-25T15:01:44.570Z,99.90
2022-07-25T15:04:12.824Z,99.90
2022-07-25T15:06:41.139Z,99.90
2022-07-25T15:09:09.763Z,99.90
2022-07-25T15:11:38.460Z,99.90
2022-07-25T15:14:06.621Z,99.90
2022-07-25T15:16:35.033Z,99.90
2022-07-25T15:19:16.583Z,99.90
2022-07-25T15:21:45.769Z,99.90
2022-07-25T15:24:14.296Z,99.90
2022-07-25T15:26:42.410Z,99.90
2022-07-25T15:29:11.987Z,99.90
2022-07-25T15:31:40.425Z,99.90
2022-07-25T15:34:10.022Z,99.90
2022-07-25T15:36:38.177Z,99.90
2022-07-25T15:39:06.765Z,99.90
2022-07-25T15:41:35.365Z,99.90
2022-07-25T15:44:03.547Z,99.90
2022-07-25T15:46:32.779Z,99.90
2022-07-25T15:49:02.599Z,99.90
2022-07-25T15:51:32.251Z,99.90
2022-07-25T15:54:00.385Z,99.90
2022-07-25T15:56:29.191Z,99.90
2022-07-25T15:58:57.426Z,99.90
2022-07-25T16:01:26.191Z,99.90
2022-07-25T16:03:55.321Z,99.90
2022-07-25T16:06:23.453Z,99.90
2022-07-25T16:08:53.118Z,99.90
2022-07-25T16:11:27.000Z,99.90
2022-07-25T16:13:55.249Z,99.90
2022-07-25T16:16:23.577Z,99.90
2022-07-25T16:18:52.057Z,99.90
2022-07-25T16:21:20.241Z,99.90
2022-07-25T16:23:48.336Z,99.90
2022-07-25T16:26:17.879Z,99.90
2022-07-25T16:28:46.009Z,99.90
2022-07-25T16:31:14.177Z,99.90
2022-07-25T16:33:42.314Z,99.90
2022-07-25T16:36:12.326Z,99.90
2022-07-25T16:38:40.634Z,99.90
2022-07-25T16:41:09.009Z,99.90
2022-07-25T16:43:38.585Z,99.90
2022-07-25T16:46:08.643Z,99.90
2022-07-25T16:48:38.063Z,99.90
2022-07-25T16:51:06.800Z,99.90
2022-07-25T16:53:36.638Z,99.90
2022-07-25T16:56:06.607Z,99.90
2022-07-25T16:58:35.833Z,99.90
2022-07-25T17:01:06.890Z,99.90
2022-07-25T17:03:35.330Z,99.90
2022-07-25T17:06:05.434Z,99.90
2022-07-25T17:08:34.806Z,99.90
2022-07-25T17:11:04.590Z,99.90
2022-07-25T17:13:33.026Z,99.90
2022-07-25T17:16:01.797Z,99.90
2022-07-25T17:18:31.625Z,99.90
2022-07-25T17:21:00.103Z,99.90
2022-07-25T17:23:28.673Z,99.90
2022-07-25T17:25:58.107Z,99.90
2022-07-25T17:28:27.030Z,99.90
2022-07-25T17:30:55.597Z,99.90
2022-07-25T17:33:23.967Z,99.90
2022-07-25T17:35:53.673Z,99.90
2022-07-25T17:38:25.977Z,99.90
2022-07-25T17:40:56.150Z,99.90
2022-07-25T17:43:24.379Z,99.90
2022-07-25T17:45:52.785Z,99.90
2022-07-25T17:48:21.630Z,99.90
2022-07-25T17:50:49.931Z,99.90
2022-07-25T17:53:19.471Z,99.90
2022-07-25T17:55:47.750Z,99.90
2022-07-25T17:58:16.191Z,99.90
2022-07-25T18:00:44.384Z,99.90
2022-07-25T18:03:12.545Z,99.90
2022-07-25T18:05:40.835Z,99.90
2022-07-25T18:08:10.690Z,99.90
2022-07-25T18:10:40.850Z,99.90
2022-07-25T18:13:08.942Z,99.90
2022-07-25T18:15:37.330Z,99.90
2022-07-25T18:18:07.410Z,99.90
2022-07-25T18:20:37.045Z,99.90
2022-07-25T18:23:05.240Z,99.90
2022-07-25T18:25:33.350Z,99.90
2022-07-25T18:28:03.343Z,99.90
2022-07-25T18:30:31.572Z,99.90
2022-07-25T18:32:59.700Z,99.90
2022-07-25T18:35:27.814Z,99.90
2022-07-25T18:37:56.058Z,99.90
2022-07-25T18:40:24.188Z,99.90
2022-07-25T18:42:52.314Z,99.90
2022-07-25T18:45:22.166Z,99.90
2022-07-25T18:47:52.461Z,99.90
2022-07-25T18:50:20.778Z,99.90
2022-07-25T18:52:48.932Z,99.90
2022-07-25T18:55:17.035Z,99.90
2022-07-25T18:57:45.247Z,99.90
2022-07-25T19:00:13.705Z,99.90
2022-07-25T19:02:43.198Z,99.90
2022-07-25T19:05:11.633Z,99.90
2022-07-25T19:07:40.907Z,99.90
2022-07-25T19:10:10.459Z,99.90
2022-07-25T19:12:38.983Z,99.90
2022-07-25T19:15:08.203Z,99.90
2022-07-25T19:17:37.628Z,99.90
2022-07-25T19:20:08.852Z,99.90
2022-07-25T19:22:37.002Z,99.90
2022-07-25T19:25:08.301Z,99.90
2022-07-25T19:27:36.634Z,99.90
2022-07-25T19:30:06.987Z,99.90
2022-07-25T19:32:35.971Z,99.90
2022-07-25T19:35:04.649Z,99.90
2022-07-25T19:37:34.391Z,99.90
2022-07-25T19:40:02.750Z,99.90
2022-07-25T19:42:30.868Z,99.90
2022-07-25T19:44:58.983Z,99.90
2022-07-25T19:47:27.657Z,99.90
2022-07-25T19:49:55.722Z,99.90
2022-07-25T19:52:23.876Z,99.90
2022-07-25T19:54:54.532Z,99.90
2022-07-25T19:57:22.608Z,99.90
2022-07-25T19:59:50.667Z,99.90
2022-07-25T20:02:18.806Z,99.90
2022-07-25T20:04:46.942Z,99.90
2022-07-25T20:07:15.017Z,99.90
2022-07-25T20:09:43.147Z,99.90
2022-07-25T20:12:12.570Z,99.90
2022-07-25T20:14:40.635Z,99.90
2022-07-25T20:17:09.000Z,99.90
2022-07-25T20:19:38.236Z,99.90
2022-07-25T20:22:06.885Z,99.90
2022-07-25T20:24:35.259Z,99.90
2022-07-25T20:27:03.374Z,99.90
2022-07-25T20:29:32.793Z,99.90
2022-07-25T20:32:02.189Z,99.90
2022-07-25T20:34:30.363Z,99.90
2022-07-25T20:36:58.503Z,99.90
2022-07-25T20:39:28.797Z,99.90
2022-07-25T20:41:56.985Z,99.90
2022-07-25T20:44:25.180Z,99.90
2022-07-25T20:46:54.641Z,99.90
2022-07-25T20:49:23.306Z,99.90
2022-07-25T20:51:54.554Z,99.90
2022-07-25T20:54:23.069Z,99.90
2022-07-25T20:56:51.222Z,99.90
2022-07-25T20:59:19.305Z,99.90
2022-07-25T21:01:47.516Z,99.90
2022-07-25T21:04:18.807Z,99.90
2022-07-25T21:06:47.138Z,99.90
2022-07-25T21:09:16.571Z,99.90
2022-07-25T21:11:44.741Z,99.90
2022-07-25T21:14:13.284Z,99.90
2022-07-25T21:16:41.428Z,99.90
2022-07-25T21:19:09.937Z,99.90
2022-07-25T21:21:39.947Z,99.90
2022-07-25T21:24:09.317Z,99.90
2022-07-25T21:26:39.258Z,99.90
2022-07-25T21:29:08.094Z,99.90
2022-07-25T21:31:36.612Z,99.90
2022-07-25T21:34:05.015Z,99.90
2022-07-25T21:36:34.110Z,99.90
2022-07-25T21:39:03.867Z,99.90
2022-07-25T21:41:32.183Z,99.90
2022-07-25T21:44:00.277Z,99.90
2022-07-25T21:46:28.570Z,99.90
2022-07-25T21:49:14.690Z,99.90
2022-07-25T21:51:43.136Z,99.90
2022-07-25T21:54:12.791Z,99.90
2022-07-25T21:56:42.119Z,99.90
2022-07-25T21:59:10.772Z,99.90
2022-07-25T22:01:39.843Z,99.90
2022-07-25T22:04:08.143Z,99.90
2022-07-25T22:06:36.266Z,99.90
2022-07-25T22:09:05.721Z,99.90
2022-07-25T22:11:42.683Z,99.90
2022-07-25T22:14:14.651Z,99.90
2022-07-25T22:16:42.985Z,99.90
2022-07-25T22:19:11.485Z,99.90
2022-07-25T22:21:40.778Z,99.90
2022-07-25T22:24:09.207Z,99.90
2022-07-25T22:26:38.695Z,99.90
2022-07-25T22:29:07.271Z,99.90
2022-07-25T22:31:35.946Z,99.90
2022-07-25T22:34:04.100Z,99.90
2022-07-25T22:36:32.229Z,99.90
2022-07-25T22:39:00.301Z,99.90
2022-07-25T22:41:28.402Z,99.90
2022-07-25T22:43:59.794Z,99.90
2022-07-25T22:46:28.905Z,99.90
2022-07-25T22:48:57.537Z,99.90
2022-07-25T22:51:26.399Z,99.90
2022-07-25T22:53:54.829Z,99.90
2022-07-25T22:56:23.353Z,99.90
2022-07-25T22:58:51.469Z,99.90
2022-07-25T23:01:21.811Z,99.90
2022-07-25T23:03:50.773Z,99.90
2022-07-25T23:06:20.103Z,99.90
2022-07-25T23:08:49.190Z,99.90
2022-07-25T23:11:17.565Z,99.90
2022-07-25T23:13:45.833Z,99.90
2022-07-25T23:16:13.959Z,99.90
2022-07-25T23:18:43.411Z,99.90
2022-07-25T23:21:11.527Z,99.90
2022-07-25T23:23:39.605Z,99.90
2022-07-25T23:26:07.701Z,99.90
2022-07-25T23:28:35.811Z,99.90
2022-07-25T23:31:04.274Z,99.90
2022-07-25T23:33:32.485Z,99.90
2022-07-25T23:36:02.516Z,99.90
2022-07-25T23:38:30.663Z,99.90
2022-07-25T23:40:58.738Z,99.90
2022-07-25T23:43:55.870Z,99.90
2022-07-25T23:46:15.023Z,99.90
2022-07-25T23:48:43.390Z,99.90
2022-07-25T23:51:12.888Z,99.90
2022-07-25T23:53:41.079Z,99.90
2022-07-25T23:56:09.475Z,99.90
2022-07-25T23:58:37.538Z,99.90
